createdAt,value
2023-04-18T00:01:19.435Z,6.67
2023-04-18T00:03:52.500Z,6.07
2023-04-18T00:06:24.288Z,5.97
2023-04-18T00:08:56.284Z,5.97
2023-04-18T00:11:27.632Z,6.40
2023-04-18T00:13:59.985Z,5.43
2023-04-18T00:16:31.384Z,5.77
2023-04-18T00:19:05.308Z,5.37
2023-04-18T00:21:36.021Z,6.10
2023-04-18T00:24:06.734Z,5.10
2023-04-18T00:26:37.063Z,5.20
2023-04-18T00:29:07.485Z,5.83
2023-04-18T00:31:37.318Z,6.07
2023-04-18T00:34:09.541Z,6.13
2023-04-18T00:36:40.165Z,5.97
2023-04-18T00:39:10.916Z,5.70
2023-04-18T00:41:40.806Z,6.83
2023-04-18T00:44:11.293Z,5.87
2023-04-18T00:46:44.138Z,5.57
2023-04-18T00:49:16.835Z,6.20
2023-04-18T00:51:47.992Z,5.53
2023-04-18T00:54:20.811Z,5.40
2023-04-18T00:56:50.580Z,5.80
2023-04-18T00:59:21.545Z,6.20
2023-04-18T01:01:54.995Z,6.20
2023-04-18T01:04:28.383Z,6.43
2023-04-18T01:06:59.576Z,5.80
2023-04-18T01:09:31.246Z,6.07
2023-04-18T01:12:02.257Z,6.47
2023-04-18T01:14:33.222Z,6.80
2023-04-18T01:17:04.029Z,6.80
2023-04-18T01:19:36.742Z,7.47
2023-04-18T01:22:07.088Z,6.70
2023-04-18T01:24:39.524Z,7.00
2023-04-18T01:27:13.976Z,6.83
2023-04-18T01:29:46.304Z,7.60
2023-04-18T01:32:17.781Z,6.73
2023-04-18T01:34:48.399Z,7.23
2023-04-18T01:37:18.641Z,7.60
2023-04-18T01:39:52.324Z,6.47
2023-04-18T01:42:22.078Z,7.27
2023-04-18T01:44:52.898Z,5.97
2023-04-18T01:47:24.146Z,6.33
2023-04-18T01:49:54.917Z,5.90
2023-04-18T01:52:25.355Z,6.43
2023-04-18T01:54:57.153Z,6.60
2023-04-18T01:57:27.045Z,6.37
2023-04-18T01:59:57.001Z,5.30
2023-04-18T02:02:28.648Z,6.37
2023-04-18T02:04:59.678Z,5.10
2023-04-18T02:07:30.583Z,6.20
2023-04-18T02:10:04.846Z,6.60
2023-04-18T02:12:35.784Z,4.87
2023-04-18T02:15:07.166Z,5.10
2023-04-18T02:17:37.080Z,6.03
2023-04-18T02:20:09.777Z,5.40
2023-04-18T02:22:40.742Z,5.10
2023-04-18T02:25:13.054Z,4.93
2023-04-18T02:27:43.736Z,4.57
2023-04-18T02:30:15.006Z,5.73
2023-04-18T02:32:45.658Z,4.90
2023-04-18T02:35:15.841Z,5.37
2023-04-18T02:37:46.061Z,4.30
2023-04-18T02:40:18.179Z,4.83
2023-04-18T02:42:48.439Z,5.87
2023-04-18T02:45:18.995Z,4.90
2023-04-18T02:47:55.411Z,5.50
2023-04-18T02:50:25.841Z,5.27
2023-04-18T02:52:56.854Z,5.20
2023-04-18T02:55:29.314Z,5.40
2023-04-18T02:57:59.113Z,5.30
2023-04-18T03:00:29.760Z,5.17
2023-04-18T03:02:59.921Z,5.07
2023-04-18T03:05:31.009Z,5.27
2023-04-18T03:08:01.498Z,5.90
2023-04-18T03:10:33.912Z,5.17
2023-04-18T03:13:04.160Z,5.37
2023-04-18T03:15:34.313Z,4.43
2023-04-18T03:18:04.433Z,5.57
2023-04-18T03:20:36.025Z,5.10
2023-04-18T03:23:06.310Z,5.33
2023-04-18T03:25:38.271Z,5.60
2023-04-18T03:28:08.600Z,5.63
2023-04-18T03:30:39.863Z,5.03
2023-04-18T03:33:10.322Z,5.30
2023-04-18T03:35:40.471Z,4.70
2023-04-18T03:38:11.133Z,5.10
2023-04-18T03:40:45.503Z,5.70
2023-04-18T03:43:15.637Z,6.10
2023-04-18T03:45:47.850Z,4.77
2023-04-18T03:48:17.633Z,4.37
2023-04-18T03:50:48.180Z,5.70
2023-04-18T03:53:18.276Z,5.23
2023-04-18T03:55:54.399Z,4.80
2023-04-18T03:58:25.793Z,5.20
2023-04-18T04:00:56.582Z,5.87
2023-04-18T04:03:27.978Z,5.30
2023-04-18T04:05:59.638Z,5.63
2023-04-18T04:08:30.571Z,6.90
2023-04-18T04:11:05.076Z,6.10
2023-04-18T04:13:36.951Z,5.70
2023-04-18T04:16:08.962Z,7.07
2023-04-18T04:18:38.931Z,4.93
2023-04-18T04:21:09.269Z,5.30
2023-04-18T04:23:42.256Z,6.93
2023-04-18T04:26:15.270Z,6.10
2023-04-18T04:28:47.010Z,5.17
2023-04-18T04:31:17.156Z,5.10
2023-04-18T04:33:47.609Z,6.30
2023-04-18T04:36:19.922Z,5.30
2023-04-18T04:38:50.128Z,5.60
2023-04-18T04:41:23.495Z,5.97
2023-04-18T04:43:54.577Z,5.70
2023-04-18T04:46:24.630Z,6.27
2023-04-18T04:49:01.335Z,6.23
2023-04-18T04:51:32.020Z,5.77
2023-04-18T04:54:02.218Z,6.80
2023-04-18T04:56:34.166Z,5.83
2023-04-18T04:59:04.374Z,6.33
2023-04-18T05:01:35.056Z,6.43
2023-04-18T05:04:05.877Z,7.17
2023-04-18T05:06:40.260Z,7.27
2023-04-18T05:09:11.754Z,8.00
2023-04-18T05:11:43.387Z,6.83
2023-04-18T05:14:14.948Z,7.27
2023-04-18T05:16:46.270Z,7.30
2023-04-18T05:19:17.711Z,7.10
2023-04-18T05:21:48.475Z,7.63
2023-04-18T05:24:19.236Z,7.20
2023-04-18T05:26:52.180Z,7.33
2023-04-18T05:29:22.076Z,7.53
2023-04-18T05:31:52.350Z,6.97
2023-04-18T05:34:27.122Z,7.10
2023-04-18T05:36:58.057Z,7.20
2023-04-18T05:39:28.997Z,7.57
2023-04-18T05:42:01.860Z,8.03
2023-04-18T05:44:32.275Z,7.77
2023-04-18T05:47:06.600Z,7.47
2023-04-18T05:49:39.963Z,8.40
2023-04-18T05:52:11.580Z,8.83
2023-04-18T05:54:41.629Z,9.67
2023-04-18T05:57:13.410Z,9.30
2023-04-18T05:59:44.036Z,9.30
2023-04-18T06:02:15.310Z,9.40
2023-04-18T06:04:45.663Z,8.83
2023-04-18T06:07:15.919Z,9.53
2023-04-18T06:09:46.652Z,8.67
2023-04-18T06:12:22.361Z,10.93
2023-04-18T06:14:53.878Z,9.07
2023-04-18T06:17:24.632Z,9.80
2023-04-18T06:19:54.414Z,10.67
2023-04-18T06:22:24.969Z,13.07
2023-04-18T06:24:56.195Z,10.57
2023-04-18T06:27:31.498Z,11.27
2023-04-18T06:30:02.884Z,10.83
2023-04-18T06:32:33.239Z,10.83
2023-04-18T06:35:02.885Z,11.80
2023-04-18T06:37:32.590Z,9.47
2023-04-18T06:40:02.799Z,8.30
2023-04-18T06:42:34.166Z,9.97
2023-04-18T06:45:06.166Z,6.80
2023-04-18T06:47:36.486Z,8.00
2023-04-18T06:50:06.624Z,7.67
2023-04-18T06:52:40.879Z,9.03
2023-04-18T06:55:14.206Z,8.67
2023-04-18T06:57:47.655Z,11.10
2023-04-18T07:00:19.233Z,7.83
2023-04-18T07:02:49.176Z,8.83
2023-04-18T07:05:19.597Z,7.90
2023-04-18T07:07:51.182Z,7.30
2023-04-18T07:10:21.603Z,7.80
2023-04-18T07:12:53.409Z,7.80
2023-04-18T07:15:23.637Z,9.03
2023-04-18T07:17:54.120Z,8.77
2023-04-18T07:20:24.210Z,7.70
2023-04-18T07:22:54.680Z,6.63
2023-04-18T07:25:24.421Z,6.13
2023-04-18T07:27:56.879Z,5.13
2023-04-18T07:30:29.544Z,6.50
2023-04-18T07:33:00.279Z,6.73
2023-04-18T07:35:31.055Z,6.80
2023-04-18T07:38:01.294Z,6.90
2023-04-18T07:40:32.592Z,6.03
2023-04-18T07:43:05.814Z,4.60
2023-04-18T07:45:38.487Z,2.70
2023-04-18T07:48:09.125Z,2.37
2023-04-18T07:50:42.694Z,1.47
2023-04-18T07:53:14.359Z,1.70
2023-04-18T07:55:45.297Z,2.20
2023-04-18T07:58:17.880Z,2.00
2023-04-18T08:00:49.582Z,1.90
2023-04-18T08:03:19.999Z,2.17
2023-04-18T08:05:52.222Z,2.03
2023-04-18T08:08:21.987Z,1.90
2023-04-18T08:10:52.241Z,2.57
2023-04-18T08:13:25.400Z,2.80
2023-04-18T08:15:56.119Z,3.00
2023-04-18T08:18:26.500Z,2.13
2023-04-18T08:20:57.181Z,2.20
2023-04-18T08:23:26.989Z,2.90
2023-04-18T08:25:57.031Z,2.20
2023-04-18T08:28:28.569Z,3.10
2023-04-18T08:30:58.553Z,2.50
2023-04-18T08:33:30.259Z,2.87
2023-04-18T08:36:00.975Z,2.90
2023-04-18T08:38:31.787Z,3.00
2023-04-18T08:41:03.619Z,2.83
2023-04-18T08:43:36.353Z,3.80
2023-04-18T08:46:08.420Z,3.10
2023-04-18T08:48:43.868Z,3.07
2023-04-18T08:51:14.057Z,3.43
2023-04-18T08:53:45.904Z,3.30
2023-04-18T08:56:18.091Z,3.33
2023-04-18T08:59:03.269Z,3.50
2023-04-18T09:01:57.633Z,3.43
2023-04-18T09:04:45.788Z,3.10
2023-04-18T09:07:17.209Z,3.50
2023-04-18T09:09:50.557Z,3.20
2023-04-18T09:12:22.828Z,3.53
2023-04-18T09:14:57.175Z,3.47
2023-04-18T09:17:49.834Z,2.63
2023-04-18T09:20:36.277Z,3.70
2023-04-18T09:23:11.325Z,3.50
2023-04-18T09:25:47.044Z,3.07
2023-04-18T09:28:30.327Z,2.30
2023-04-18T09:31:12.346Z,2.60
2023-04-18T09:33:47.213Z,2.47
2023-04-18T09:36:22.517Z,2.50
2023-04-18T09:38:56.673Z,2.83
2023-04-18T09:41:28.195Z,2.73
2023-04-18T09:44:14.921Z,1.93
2023-04-18T09:46:48.459Z,1.80
2023-04-18T09:49:18.735Z,2.43
2023-04-18T09:51:49.052Z,3.13
2023-04-18T09:54:24.128Z,2.17
2023-04-18T09:56:59.731Z,2.73
2023-04-18T09:59:39.723Z,2.87
2023-04-18T10:02:23.001Z,2.80
2023-04-18T10:04:57.478Z,2.97
2023-04-18T10:07:29.616Z,2.80
2023-04-18T10:10:00.755Z,2.97
2023-04-18T10:12:33.845Z,2.73
2023-04-18T10:15:03.763Z,2.53
2023-04-18T10:17:56.023Z,3.00
2023-04-18T10:20:31.946Z,2.90
2023-04-18T10:23:17.942Z,2.90
2023-04-18T10:25:52.141Z,3.57
2023-04-18T10:28:24.842Z,3.07
2023-04-18T10:31:02.923Z,2.90
2023-04-18T10:33:41.058Z,3.00
2023-04-18T10:36:20.249Z,3.00
2023-04-18T10:38:52.152Z,2.83
2023-04-18T10:41:24.480Z,2.63
2023-04-18T10:44:18.546Z,3.20
2023-04-18T10:47:22.615Z,3.03
2023-04-18T10:50:06.918Z,2.77
2023-04-18T10:52:37.618Z,2.83
2023-04-18T10:55:18.141Z,2.27
2023-04-18T10:57:51.069Z,2.30
2023-04-18T11:00:22.096Z,2.63
2023-04-18T11:02:55.952Z,2.70
2023-04-18T11:05:34.486Z,2.50
2023-04-18T11:09:17.731Z,2.63
2023-04-18T11:11:50.964Z,2.77
2023-04-18T11:14:20.471Z,3.03
2023-04-18T11:16:50.683Z,2.70
2023-04-18T11:19:21.788Z,3.40
2023-04-18T11:21:54.051Z,2.53
2023-04-18T11:24:27.617Z,2.53
2023-04-18T11:26:58.747Z,2.37
2023-04-18T11:29:30.254Z,2.77
2023-04-18T11:32:00.025Z,2.40
2023-04-18T11:34:32.152Z,2.30
2023-04-18T11:37:07.232Z,2.73
2023-04-18T11:39:37.908Z,2.80
2023-04-18T11:42:08.132Z,2.13
2023-04-18T11:44:40.150Z,2.07
2023-04-18T11:47:25.726Z,1.90
2023-04-18T11:50:00.650Z,2.53
2023-04-18T11:52:33.201Z,2.10
2023-04-18T11:55:14.769Z,1.73
2023-04-18T11:57:44.915Z,1.83
2023-04-18T12:00:16.459Z,2.10
2023-04-18T12:02:49.036Z,1.73
2023-04-18T12:05:27.933Z,1.90
2023-04-18T12:08:09.444Z,1.97
2023-04-18T12:10:40.389Z,1.90
2023-04-18T12:13:11.731Z,1.67
2023-04-18T12:15:46.665Z,1.70
2023-04-18T12:18:22.012Z,2.10
2023-04-18T12:20:54.489Z,1.80
2023-04-18T12:23:34.288Z,2.00
2023-04-18T12:26:06.227Z,1.73
2023-04-18T12:28:37.500Z,1.57
2023-04-18T12:31:11.942Z,2.10
2023-04-18T12:33:42.135Z,2.30
2023-04-18T12:36:12.360Z,1.70
2023-04-18T12:38:49.720Z,1.47
2023-04-18T12:41:20.216Z,1.80
2023-04-18T12:43:51.761Z,1.30
2023-04-18T12:46:22.109Z,1.70
2023-04-18T12:48:52.144Z,1.63
2023-04-18T12:51:22.145Z,1.60
2023-04-18T12:53:53.908Z,1.10
2023-04-18T12:56:24.832Z,1.70
2023-04-18T12:58:56.328Z,1.17
2023-04-18T13:01:27.373Z,1.67
2023-04-18T13:04:10.924Z,1.73
2023-04-18T13:06:43.220Z,1.50
2023-04-18T13:09:17.812Z,1.80
2023-04-18T13:11:49.604Z,1.30
2023-04-18T13:14:19.959Z,1.90
2023-04-18T13:16:50.583Z,1.60
2023-04-18T13:19:20.569Z,1.30
2023-04-18T13:21:50.904Z,1.30
2023-04-18T13:24:23.022Z,1.40
2023-04-18T13:26:53.993Z,1.70
2023-04-18T13:29:24.670Z,1.77
2023-04-18T13:31:54.635Z,1.73
2023-04-18T13:34:25.119Z,1.97
2023-04-18T13:36:56.375Z,1.93
2023-04-18T13:39:29.760Z,1.90
2023-04-18T13:41:59.863Z,1.80
2023-04-18T13:44:32.350Z,2.50
2023-04-18T13:47:04.367Z,1.60
2023-04-18T13:49:35.812Z,2.10
2023-04-18T13:52:10.076Z,1.80
2023-04-18T13:54:42.404Z,2.00
2023-04-18T13:57:13.101Z,2.10
2023-04-18T13:59:43.449Z,1.83
2023-04-18T14:02:16.148Z,2.10
2023-04-18T14:04:49.392Z,1.80
2023-04-18T14:07:20.181Z,2.27
2023-04-18T14:10:05.429Z,1.80
2023-04-18T14:12:36.265Z,1.47
2023-04-18T14:15:08.643Z,1.83
2023-04-18T14:17:41.854Z,2.83
2023-04-18T14:20:16.049Z,2.37
2023-04-18T14:22:46.573Z,2.00
2023-04-18T14:25:19.073Z,1.83
2023-04-18T14:27:51.776Z,2.00
2023-04-18T14:30:23.034Z,1.63
2023-04-18T14:32:53.277Z,2.10
2023-04-18T14:35:23.736Z,1.43
2023-04-18T14:37:55.529Z,1.63
2023-04-18T14:40:28.146Z,1.83
2023-04-18T14:42:58.574Z,2.23
2023-04-18T14:45:29.037Z,2.23
2023-04-18T14:48:04.578Z,1.87
2023-04-18T14:50:38.795Z,2.33
2023-04-18T14:53:09.294Z,2.37
2023-04-18T14:55:44.140Z,2.40
2023-04-18T14:58:15.239Z,1.83
2023-04-18T15:00:46.366Z,1.83
2023-04-18T15:03:16.852Z,2.07
2023-04-18T15:05:50.041Z,2.27
2023-04-18T15:08:20.908Z,2.40
2023-04-18T15:10:54.098Z,2.73
2023-04-18T15:13:25.905Z,1.53
2023-04-18T15:15:58.341Z,2.20
2023-04-18T15:18:28.936Z,1.93
2023-04-18T15:21:01.681Z,1.93
2023-04-18T15:23:33.184Z,2.00
2023-04-18T15:26:07.204Z,2.07
2023-04-18T15:28:37.708Z,2.20
2023-04-18T15:31:10.424Z,2.07
2023-04-18T15:33:41.243Z,1.70
2023-04-18T15:36:14.057Z,2.20
2023-04-18T15:38:44.462Z,1.63
2023-04-18T15:41:17.034Z,2.23
2023-04-18T15:43:49.610Z,2.10
2023-04-18T15:46:20.256Z,1.97
2023-04-18T15:48:51.870Z,2.13
2023-04-18T15:51:22.797Z,2.33
2023-04-18T15:53:53.163Z,1.93
2023-04-18T15:56:28.443Z,2.30
2023-04-18T15:58:59.482Z,2.10
2023-04-18T16:01:32.670Z,3.13
2023-04-18T16:04:03.207Z,2.33
2023-04-18T16:06:33.040Z,2.67
2023-04-18T16:09:04.598Z,3.10
2023-04-18T16:11:37.131Z,3.20
2023-04-18T16:14:07.298Z,2.90
2023-04-18T16:16:38.369Z,2.33
2023-04-18T16:19:11.835Z,2.57
2023-04-18T16:21:42.758Z,2.53
2023-04-18T16:24:12.508Z,2.77
2023-04-18T16:26:44.957Z,2.30
2023-04-18T16:29:14.890Z,3.07
2023-04-18T16:31:45.464Z,2.23
2023-04-18T16:34:16.162Z,2.50
2023-04-18T16:36:46.416Z,3.07
2023-04-18T16:39:16.457Z,3.20
2023-04-18T16:41:49.062Z,3.00
2023-04-18T16:44:21.905Z,3.13
2023-04-18T16:46:56.110Z,2.60
2023-04-18T16:49:26.564Z,2.97
2023-04-18T16:52:00.223Z,2.40
2023-04-18T16:54:30.927Z,2.20
2023-04-18T16:57:04.172Z,2.33
2023-04-18T16:59:34.970Z,2.20
2023-04-18T17:02:06.502Z,2.30
2023-04-18T17:04:37.912Z,1.40
2023-04-18T17:07:08.736Z,1.80
2023-04-18T17:09:39.284Z,1.97
2023-04-18T17:12:11.934Z,1.90
2023-04-18T17:14:45.386Z,2.33
2023-04-18T17:17:16.546Z,1.90
2023-04-18T17:19:48.112Z,1.90
2023-04-18T17:22:19.791Z,2.57
2023-04-18T17:24:49.969Z,2.07
2023-04-18T17:27:24.603Z,1.90
2023-04-18T17:29:55.843Z,1.70
2023-04-18T17:32:29.377Z,1.80
2023-04-18T17:35:02.280Z,1.20
2023-04-18T17:37:33.467Z,1.47
2023-04-18T17:40:10.793Z,2.00
2023-04-18T17:42:45.059Z,1.60
2023-04-18T17:45:17.049Z,1.40
2023-04-18T17:47:51.585Z,1.50
2023-04-18T17:50:21.662Z,1.53
2023-04-18T17:52:54.680Z,1.47
2023-04-18T17:55:26.855Z,1.23
2023-04-18T17:58:00.023Z,1.00
2023-04-18T18:00:33.359Z,1.90
2023-04-18T18:03:05.282Z,1.47
2023-04-18T18:05:37.252Z,1.33
2023-04-18T18:08:10.005Z,1.17
2023-04-18T18:10:41.589Z,1.20
2023-04-18T18:13:14.158Z,1.43
2023-04-18T18:15:45.093Z,1.67
2023-04-18T18:18:16.054Z,1.30
2023-04-18T18:20:48.138Z,1.07
2023-04-18T18:23:20.721Z,1.03
2023-04-18T18:25:51.403Z,1.30
2023-04-18T18:28:23.360Z,1.03
2023-04-18T18:30:53.386Z,1.27
2023-04-18T18:33:27.453Z,1.53
2023-04-18T18:35:58.698Z,1.40
2023-04-18T18:38:29.818Z,1.63
2023-04-18T18:41:03.670Z,1.30
2023-04-18T18:43:36.092Z,1.80
2023-04-18T18:46:06.801Z,1.17
2023-04-18T18:48:39.515Z,1.37
2023-04-18T18:51:10.026Z,1.50
2023-04-18T18:53:41.094Z,1.37
2023-04-18T18:56:11.212Z,1.50
2023-04-18T18:58:44.127Z,1.97
2023-04-18T19:01:14.503Z,1.93
2023-04-18T19:03:45.007Z,1.90
2023-04-18T19:06:15.400Z,1.30
2023-04-18T19:08:45.231Z,1.60
2023-04-18T19:11:16.436Z,1.57
2023-04-18T19:13:49.462Z,1.97
2023-04-18T19:16:19.798Z,1.23
2023-04-18T19:18:50.908Z,2.00
2023-04-18T19:21:22.254Z,1.57
2023-04-18T19:23:53.877Z,2.17
2023-04-18T19:26:25.677Z,1.60
2023-04-18T19:28:57.413Z,1.57
2023-04-18T19:31:27.158Z,1.57
2023-04-18T19:33:58.446Z,1.80
2023-04-18T19:36:29.168Z,1.40
2023-04-18T19:38:59.272Z,2.20
2023-04-18T19:41:29.092Z,2.23
2023-04-18T19:44:00.756Z,2.00
2023-04-18T19:46:30.916Z,1.63
2023-04-18T19:49:03.497Z,2.10
2023-04-18T19:51:34.031Z,4.40
2023-04-18T19:54:05.045Z,5.77
2023-04-18T19:56:35.461Z,6.17
2023-04-18T19:59:07.547Z,5.77
2023-04-18T20:01:38.025Z,8.07
2023-04-18T20:04:09.145Z,9.00
2023-04-18T20:06:39.512Z,9.43
2023-04-18T20:09:16.159Z,7.70
2023-04-18T20:11:47.386Z,8.40
2023-04-18T20:14:20.030Z,8.63
2023-04-18T20:16:51.199Z,8.47
2023-04-18T20:19:24.888Z,6.97
2023-04-18T20:21:54.713Z,5.90
2023-04-18T20:24:28.716Z,4.00
2023-04-18T20:27:00.940Z,3.30
2023-04-18T20:29:32.716Z,3.00
2023-04-18T20:32:03.325Z,3.00
2023-04-18T20:34:34.484Z,2.63
2023-04-18T20:37:07.974Z,2.40
2023-04-18T20:39:38.393Z,2.50
2023-04-18T20:42:14.791Z,2.23
2023-04-18T20:44:47.862Z,2.80
2023-04-18T20:47:19.105Z,2.40
2023-04-18T20:49:49.402Z,3.27
2023-04-18T20:52:20.275Z,2.83
2023-04-18T20:54:50.301Z,4.73
2023-04-18T20:57:21.626Z,5.20
2023-04-18T20:59:54.908Z,6.47
2023-04-18T21:02:26.733Z,6.07
2023-04-18T21:04:57.145Z,6.20
2023-04-18T21:07:27.930Z,5.90
2023-04-18T21:09:58.385Z,6.40
2023-04-18T21:12:28.665Z,6.10
2023-04-18T21:15:00.398Z,5.87
2023-04-18T21:17:30.859Z,5.67
2023-04-18T21:20:01.201Z,5.73
2023-04-18T21:22:31.045Z,6.30
2023-04-18T21:25:01.089Z,5.53
2023-04-18T21:27:32.032Z,5.43
2023-04-18T21:30:04.937Z,6.03
2023-04-18T21:32:35.752Z,5.13
2023-04-18T21:35:06.324Z,6.23
2023-04-18T21:37:36.172Z,5.80
2023-04-18T21:40:09.149Z,6.60
2023-04-18T21:42:39.341Z,8.40
2023-04-18T21:45:13.118Z,8.13
2023-04-18T21:47:43.896Z,6.33
2023-04-18T21:50:14.965Z,4.73
2023-04-18T21:52:45.366Z,4.30
2023-04-18T21:55:15.097Z,4.70
2023-04-18T21:57:44.815Z,3.77
2023-04-18T22:00:18.437Z,3.13
2023-04-18T22:02:48.520Z,3.33
2023-04-18T22:05:18.934Z,3.00
2023-04-18T22:07:57.574Z,3.03
2023-04-18T22:10:29.029Z,3.10
2023-04-18T22:13:00.392Z,2.90
2023-04-18T22:15:31.404Z,2.50
2023-04-18T22:18:01.491Z,2.30
2023-04-18T22:20:31.746Z,3.20
2023-04-18T22:23:03.714Z,2.60
2023-04-18T22:25:33.961Z,3.27
2023-04-18T22:28:04.456Z,3.47
2023-04-18T22:30:36.140Z,3.10
2023-04-18T22:33:07.015Z,3.37
2023-04-18T22:35:37.751Z,3.00
2023-04-18T22:38:08.270Z,2.90
2023-04-18T22:40:38.730Z,3.07
2023-04-18T22:43:08.749Z,2.90
2023-04-18T22:45:44.345Z,3.23
2023-04-18T22:48:14.461Z,3.10
2023-04-18T22:50:46.628Z,3.20
2023-04-18T22:53:16.700Z,4.27
2023-04-18T22:55:47.625Z,3.50
2023-04-18T22:58:18.351Z,3.50
2023-04-18T23:00:50.362Z,3.40
2023-04-18T23:03:20.577Z,2.90
2023-04-18T23:05:51.180Z,2.83
2023-04-18T23:08:22.826Z,2.60
2023-04-18T23:10:53.928Z,3.50
2023-04-18T23:13:23.833Z,3.30
2023-04-18T23:15:55.904Z,2.17
2023-04-18T23:18:26.036Z,2.47
2023-04-18T23:20:57.151Z,2.47
2023-04-18T23:23:27.084Z,2.30
2023-04-18T23:25:57.196Z,2.27
2023-04-18T23:28:26.679Z,2.37
2023-04-18T23:30:57.666Z,1.73
2023-04-18T23:33:27.968Z,2.00
2023-04-18T23:35:58.081Z,2.00
2023-04-18T23:38:28.134Z,1.97
2023-04-18T23:40:58.394Z,1.60
2023-04-18T23:43:28.960Z,1.90
2023-04-18T23:46:00.951Z,2.23
2023-04-18T23:48:30.678Z,2.37
2023-04-18T23:51:01.493Z,2.63
2023-04-18T23:53:31.127Z,2.40
2023-04-18T23:56:01.459Z,2.50
2023-04-18T23:58:32.202Z,2.80
